createdAt,value
2018-05-26T00:01:38.026Z,8.07
2018-05-26T00:04:09.386Z,6.50
2018-05-26T00:06:37.622Z,9.23
2018-05-26T00:09:05.843Z,8.20
2018-05-26T00:11:34.079Z,7.87
2018-05-26T00:14:02.295Z,6.90
2018-05-26T00:16:30.521Z,6.07
2018-05-26T00:18:58.785Z,6.00
2018-05-26T00:21:27.778Z,9.30
2018-05-26T00:23:56.765Z,7.83
2018-05-26T00:26:24.993Z,7.87
2018-05-26T00:28:53.232Z,7.23
2018-05-26T00:31:22.217Z,5.53
2018-05-26T00:33:51.226Z,5.23
2018-05-26T00:36:20.217Z,10.17
2018-05-26T00:38:49.225Z,6.30
2018-05-26T00:41:17.445Z,7.63
2018-05-26T00:43:45.668Z,7.40
2018-05-26T00:46:13.910Z,9.03
2018-05-26T00:48:42.115Z,6.43
2018-05-26T00:51:10.354Z,8.33
2018-05-26T00:53:38.584Z,9.20
2018-05-26T00:56:06.822Z,7.40
2018-05-26T00:58:36.563Z,8.03
2018-05-26T01:01:04.815Z,9.57
2018-05-26T01:03:33.832Z,8.17
2018-05-26T01:06:02.081Z,7.87
2018-05-26T01:08:31.078Z,7.90
2018-05-26T01:11:00.087Z,8.33
2018-05-26T01:13:29.093Z,7.87
2018-05-26T01:15:57.324Z,8.73
2018-05-26T01:18:26.285Z,7.30
2018-05-26T01:20:54.494Z,6.17
2018-05-26T01:23:22.719Z,5.97
2018-05-26T01:25:50.973Z,6.10
2018-05-26T01:28:19.949Z,7.50
2018-05-26T01:30:48.942Z,5.93
2018-05-26T01:33:17.167Z,6.40
2018-05-26T01:35:45.411Z,9.33
2018-05-26T01:38:14.387Z,6.43
2018-05-26T01:40:43.380Z,6.73
2018-05-26T01:43:11.610Z,7.47
2018-05-26T01:45:39.829Z,8.23
2018-05-26T01:48:08.137Z,6.37
2018-05-26T01:50:36.354Z,7.50
2018-05-26T01:53:04.763Z,7.43
2018-05-26T01:55:32.950Z,8.30
2018-05-26T01:58:01.966Z,5.47
2018-05-26T02:00:30.180Z,12.43
2018-05-26T02:02:58.416Z,9.20
2018-05-26T02:05:26.697Z,9.40
2018-05-26T02:07:54.925Z,6.07
2018-05-26T02:10:23.150Z,8.60
2018-05-26T02:12:51.369Z,6.80
2018-05-26T02:15:19.608Z,7.40
2018-05-26T02:17:47.853Z,7.40
2018-05-26T02:20:16.854Z,8.63
2018-05-26T02:22:45.844Z,6.90
2018-05-26T02:25:14.852Z,6.67
2018-05-26T02:27:43.071Z,6.37
2018-05-26T02:30:11.319Z,11.30
2018-05-26T02:32:39.580Z,7.97
2018-05-26T02:35:07.787Z,8.10
2018-05-26T02:37:36.035Z,6.10
2018-05-26T02:40:04.274Z,6.50
2018-05-26T02:42:32.494Z,9.30
2018-05-26T02:45:00.744Z,6.73
2018-05-26T02:47:29.815Z,7.47
2018-05-26T02:49:58.038Z,6.80
2018-05-26T02:52:26.270Z,10.30
2018-05-26T02:54:54.487Z,6.43
2018-05-26T02:57:22.753Z,8.07
2018-05-26T02:59:50.972Z,6.83
2018-05-26T03:02:19.229Z,5.73
2018-05-26T03:04:53.090Z,7.40
2018-05-26T03:07:27.828Z,7.13
2018-05-26T03:10:02.666Z,10.47
2018-05-26T03:12:36.554Z,8.60
2018-05-26T03:15:04.345Z,8.03
2018-05-26T03:17:34.944Z,7.50
2018-05-26T03:20:03.183Z,9.00
2018-05-26T03:22:31.392Z,8.90
2018-05-26T03:24:59.712Z,7.70
2018-05-26T03:27:27.927Z,7.23
2018-05-26T03:29:56.171Z,7.97
2018-05-26T03:32:25.163Z,10.27
2018-05-26T03:34:53.417Z,8.63
2018-05-26T03:37:22.424Z,5.83
2018-05-26T03:39:50.642Z,7.53
2018-05-26T03:42:18.879Z,7.27
2018-05-26T03:44:47.106Z,12.57
2018-05-26T03:47:16.858Z,6.73
2018-05-26T03:49:45.079Z,7.57
2018-05-26T03:52:13.303Z,10.37
2018-05-26T03:58:01.998Z,8.63
2018-05-26T04:00:30.213Z,8.40
2018-05-26T04:02:58.458Z,6.13
2018-05-26T04:05:26.678Z,7.40
2018-05-26T04:07:54.993Z,10.57
2018-05-26T04:10:23.235Z,8.63
2018-05-26T04:12:51.548Z,7.17
2018-05-26T04:15:19.768Z,12.17
2018-05-26T04:17:48.003Z,12.20
2018-05-26T04:20:16.216Z,7.20
2018-05-26T04:22:44.456Z,8.13
2018-05-26T04:25:12.694Z,6.43
2018-05-26T04:27:40.954Z,8.80
2018-05-26T04:30:09.190Z,7.57
2018-05-26T04:32:37.414Z,6.47
2018-05-26T04:35:05.724Z,7.57
2018-05-26T04:37:33.950Z,11.50
2018-05-26T04:40:02.304Z,7.93
2018-05-26T04:42:30.530Z,10.00
2018-05-26T04:44:58.791Z,10.20
2018-05-26T04:47:27.119Z,6.17
2018-05-26T04:49:55.395Z,14.97
2018-05-26T04:52:23.657Z,8.00
2018-05-26T04:54:51.949Z,7.60
2018-05-26T04:57:21.142Z,7.20
2018-05-26T04:59:49.397Z,7.70
2018-05-26T05:02:18.376Z,8.07
2018-05-26T05:04:46.620Z,8.57
2018-05-26T05:07:14.856Z,8.77
2018-05-26T05:09:43.112Z,7.13
2018-05-26T05:12:11.360Z,7.33
2018-05-26T05:14:39.594Z,11.77
2018-05-26T05:17:07.839Z,7.90
2018-05-26T05:19:36.078Z,10.93
2018-05-26T05:22:04.288Z,7.73
2018-05-26T05:24:32.535Z,8.50
2018-05-26T05:27:00.749Z,8.00
2018-05-26T05:29:29.757Z,11.10
2018-05-26T05:31:58.757Z,9.00
2018-05-26T05:34:26.991Z,6.67
2018-05-26T05:36:55.206Z,6.70
2018-05-26T05:39:23.488Z,6.70
2018-05-26T05:41:51.714Z,7.03
2018-05-26T05:44:19.929Z,7.93
2018-05-26T05:46:48.932Z,8.97
2018-05-26T05:49:17.164Z,6.63
2018-05-26T05:51:45.387Z,10.87
2018-05-26T05:54:13.603Z,6.73
2018-05-26T05:56:41.831Z,8.03
2018-05-26T05:59:10.052Z,8.33
2018-05-26T06:01:38.309Z,6.40
2018-05-26T06:04:06.535Z,9.33
2018-05-26T06:06:36.284Z,7.60
2018-05-26T06:09:05.305Z,12.00
2018-05-26T06:11:33.561Z,7.23
2018-05-26T06:14:01.812Z,11.50
2018-05-26T06:16:30.799Z,9.60
2018-05-26T06:18:59.808Z,6.17
2018-05-26T06:21:28.028Z,7.57
2018-05-26T06:23:56.273Z,8.27
2018-05-26T06:26:24.496Z,8.27
2018-05-26T06:28:52.729Z,8.97
2018-05-26T06:31:21.226Z,9.07
2018-05-26T06:33:49.438Z,8.37
2018-05-26T06:36:17.711Z,6.70
2018-05-26T06:38:45.897Z,7.87
2018-05-26T06:41:14.897Z,6.87
2018-05-26T06:43:43.880Z,6.00
2018-05-26T06:46:12.128Z,20.40
2018-05-26T06:48:40.380Z,7.70
2018-05-26T06:51:08.594Z,7.33
2018-05-26T06:53:36.912Z,6.13
2018-05-26T06:56:05.136Z,8.17
2018-05-26T06:58:33.378Z,5.80
2018-05-26T07:01:01.608Z,6.20
2018-05-26T07:03:29.815Z,12.17
2018-05-26T07:05:58.063Z,7.73
2018-05-26T07:08:27.173Z,9.97
2018-05-26T07:10:55.414Z,5.43
2018-05-26T07:13:23.639Z,7.37
2018-05-26T07:15:51.869Z,9.87
2018-05-26T07:18:20.095Z,7.00
2018-05-26T07:20:48.316Z,4.80
2018-05-26T07:23:16.576Z,6.40
2018-05-26T07:25:44.821Z,9.57
2018-05-26T07:28:13.051Z,9.93
2018-05-26T07:30:41.282Z,6.87
2018-05-26T07:33:09.490Z,5.00
2018-05-26T07:35:37.768Z,4.47
2018-05-26T07:38:06.157Z,6.33
2018-05-26T07:40:34.381Z,6.00
2018-05-26T07:43:02.963Z,6.67
2018-05-26T07:45:31.296Z,7.33
2018-05-26T07:47:59.511Z,4.70
2018-05-26T07:50:27.809Z,4.47
2018-05-26T07:52:56.048Z,7.77
2018-05-26T07:55:24.387Z,6.23
2018-05-26T07:57:52.608Z,4.50
2018-05-26T08:00:21.629Z,4.13
2018-05-26T08:02:49.848Z,6.43
2018-05-26T08:05:18.174Z,6.47
2018-05-26T08:07:46.454Z,4.43
2018-05-26T08:10:14.683Z,4.07
2018-05-26T08:12:42.922Z,4.83
2018-05-26T08:15:11.179Z,3.97
2018-05-26T08:17:39.448Z,6.70
2018-05-26T08:20:07.730Z,5.40
2018-05-26T08:22:35.970Z,5.00
2018-05-26T08:25:04.198Z,3.53
2018-05-26T08:27:32.461Z,3.97
2018-05-26T08:30:00.736Z,4.63
2018-05-26T08:32:28.979Z,4.17
2018-05-26T08:34:57.205Z,3.93
2018-05-26T08:37:25.538Z,3.83
2018-05-26T08:39:53.727Z,5.30
2018-05-26T08:42:22.734Z,3.93
2018-05-26T08:44:50.947Z,4.50
2018-05-26T08:47:19.290Z,3.37
2018-05-26T08:49:47.538Z,4.47
2018-05-26T08:52:16.656Z,4.50
2018-05-26T08:54:44.903Z,5.50
2018-05-26T08:57:13.142Z,4.70
2018-05-26T08:59:41.496Z,7.47
2018-05-26T09:02:09.712Z,7.43
2018-05-26T09:04:38.061Z,4.63
2018-05-26T09:07:06.301Z,5.57
2018-05-26T09:09:35.304Z,4.30
2018-05-26T09:12:03.549Z,4.37
2018-05-26T09:14:31.759Z,7.60
2018-05-26T09:17:00.013Z,5.03
2018-05-26T09:19:29.000Z,6.70
2018-05-26T09:21:57.252Z,5.67
2018-05-26T09:24:25.489Z,6.43
2018-05-26T09:26:54.462Z,6.57
2018-05-26T09:29:23.430Z,6.37
2018-05-26T09:31:53.198Z,7.43
2018-05-26T09:34:21.422Z,4.77
2018-05-26T09:36:51.135Z,4.93
2018-05-26T09:39:19.422Z,3.87
2018-05-26T09:41:47.640Z,4.70
2018-05-26T09:44:15.886Z,4.30
2018-05-26T09:46:44.868Z,6.23
2018-05-26T09:49:13.866Z,5.57
2018-05-26T09:51:42.099Z,7.77
2018-05-26T09:54:10.332Z,5.63
2018-05-26T09:56:38.551Z,6.27
2018-05-26T09:59:06.902Z,6.43
2018-05-26T10:01:35.285Z,5.67
2018-05-26T10:04:03.512Z,5.53
2018-05-26T10:06:31.836Z,5.87
2018-05-26T10:09:00.103Z,8.37
2018-05-26T10:11:28.401Z,7.70
2018-05-26T10:13:56.642Z,9.70
2018-05-26T10:16:25.664Z,9.63
2018-05-26T10:18:53.879Z,14.30
2018-05-26T10:21:22.890Z,13.60
2018-05-26T10:23:51.108Z,6.73
2018-05-26T10:26:19.398Z,4.97
2018-05-26T10:28:47.601Z,24.90
2018-05-26T10:31:15.923Z,9.10
2018-05-26T10:33:44.206Z,8.43
2018-05-26T10:36:12.430Z,14.90
2018-05-26T10:38:40.748Z,10.17
2018-05-26T10:41:09.009Z,8.63
2018-05-26T10:43:38.014Z,8.43
2018-05-26T10:46:18.888Z,6.53
2018-05-26T10:48:47.866Z,3.90
2018-05-26T10:51:16.893Z,4.20
2018-05-26T10:53:45.132Z,5.00
2018-05-26T10:56:14.877Z,4.27
2018-05-26T10:58:43.136Z,5.00
2018-05-26T11:01:12.259Z,6.77
2018-05-26T11:03:40.520Z,7.43
2018-05-26T11:06:08.733Z,4.23
2018-05-26T11:08:36.955Z,4.80
2018-05-26T11:11:05.963Z,3.57
2018-05-26T11:13:34.989Z,4.33
2018-05-26T11:16:03.249Z,6.00
2018-05-26T11:18:31.424Z,7.80
2018-05-26T11:20:59.688Z,4.13
2018-05-26T11:23:27.939Z,4.37
2018-05-26T11:25:56.351Z,9.90
2018-05-26T11:28:24.572Z,4.73
2018-05-26T11:30:52.985Z,8.30
2018-05-26T11:33:21.152Z,4.60
2018-05-26T11:35:50.159Z,8.10
2018-05-26T11:38:18.472Z,10.10
2018-05-26T11:40:46.690Z,7.00
2018-05-26T11:43:14.961Z,5.27
2018-05-26T11:45:43.177Z,5.60
2018-05-26T11:48:11.409Z,5.67
2018-05-26T11:50:39.624Z,5.37
2018-05-26T11:53:07.898Z,11.83
2018-05-26T11:55:36.125Z,12.30
2018-05-26T11:58:04.516Z,6.27
2018-05-26T12:00:32.745Z,5.33
2018-05-26T12:03:01.078Z,7.47
2018-05-26T12:05:29.290Z,4.93
2018-05-26T12:07:57.974Z,6.70
2018-05-26T12:10:26.229Z,4.83
2018-05-26T12:12:54.474Z,5.20
2018-05-26T12:15:22.690Z,4.63
2018-05-26T12:17:52.440Z,4.80
2018-05-26T12:20:20.699Z,9.83
2018-05-26T12:22:48.975Z,4.40
2018-05-26T12:25:17.199Z,5.23
2018-05-26T12:27:45.503Z,4.30
2018-05-26T12:30:14.500Z,5.03
2018-05-26T12:32:43.498Z,4.40
2018-05-26T12:35:11.785Z,4.43
2018-05-26T12:37:40.035Z,6.20
2018-05-26T12:40:08.330Z,7.17
2018-05-26T12:42:36.507Z,6.43
2018-05-26T12:45:04.727Z,7.80
2018-05-26T12:47:32.975Z,5.10
2018-05-26T12:50:01.215Z,5.37
2018-05-26T12:52:29.487Z,7.57
2018-05-26T12:54:57.690Z,4.73
2018-05-26T12:57:25.959Z,4.40
2018-05-26T12:59:54.252Z,6.43
2018-05-26T13:02:22.507Z,4.33
2018-05-26T13:04:50.746Z,4.73
2018-05-26T13:07:19.076Z,4.73
2018-05-26T13:09:47.413Z,7.47
2018-05-26T13:12:15.640Z,4.77
2018-05-26T13:14:43.903Z,4.80
2018-05-26T13:17:12.178Z,8.13
2018-05-26T13:19:40.441Z,6.87
2018-05-26T13:22:09.437Z,4.47
2018-05-26T13:24:38.422Z,8.67
2018-05-26T13:27:07.427Z,4.37
2018-05-26T13:29:36.429Z,13.77
2018-05-26T13:32:05.495Z,4.37
2018-05-26T13:34:33.691Z,8.00
2018-05-26T13:37:02.689Z,11.37
2018-05-26T13:39:31.721Z,5.13
2018-05-26T13:42:00.724Z,8.23
2018-05-26T13:44:28.973Z,5.47
2018-05-26T13:46:57.206Z,5.53
2018-05-26T13:49:26.226Z,4.77
2018-05-26T13:51:55.469Z,8.03
2018-05-26T13:54:23.711Z,16.47
2018-05-26T13:56:51.931Z,15.97
2018-05-26T13:59:20.234Z,12.53
2018-05-26T14:01:49.270Z,9.93
2018-05-26T14:04:17.519Z,9.20
2018-05-26T14:06:46.489Z,7.10
2018-05-26T14:09:14.736Z,9.70
2018-05-26T14:11:42.951Z,9.77
2018-05-26T14:14:11.964Z,8.37
2018-05-26T14:16:40.208Z,7.57
2018-05-26T14:19:08.438Z,3.57
2018-05-26T14:21:36.675Z,10.07
2018-05-26T14:24:05.655Z,7.17
2018-05-26T14:26:33.896Z,8.70
2018-05-26T14:29:02.104Z,7.27
2018-05-26T14:31:31.120Z,8.40
2018-05-26T14:34:00.101Z,6.13
2018-05-26T14:36:28.348Z,5.80
2018-05-26T14:38:56.572Z,7.27
2018-05-26T14:41:24.838Z,5.73
2018-05-26T14:43:53.820Z,8.90
2018-05-26T14:46:22.803Z,5.80
2018-05-26T14:48:51.045Z,7.20
2018-05-26T14:51:19.420Z,6.27
2018-05-26T14:53:47.623Z,8.30
2018-05-26T14:56:15.869Z,5.70
2018-05-26T14:58:44.168Z,4.30
2018-05-26T15:01:12.386Z,4.07
2018-05-26T15:03:41.488Z,4.03
2018-05-26T15:06:09.727Z,6.63
2018-05-26T15:08:37.965Z,4.57
2018-05-26T15:11:06.168Z,9.90
2018-05-26T15:13:34.385Z,7.43
2018-05-26T15:16:03.407Z,6.17
2018-05-26T15:18:31.652Z,5.80
2018-05-26T15:21:00.667Z,4.67
2018-05-26T15:23:29.652Z,4.33
2018-05-26T15:25:57.881Z,4.70
2018-05-26T15:28:26.120Z,4.97
2018-05-26T15:30:54.364Z,5.07
2018-05-26T15:33:23.376Z,5.23
2018-05-26T15:35:51.646Z,7.70
2018-05-26T15:38:19.875Z,7.73
2018-05-26T15:40:48.154Z,5.97
2018-05-26T15:43:16.371Z,6.33
2018-05-26T15:45:45.362Z,6.03
2018-05-26T15:48:14.368Z,4.10
2018-05-26T15:50:42.611Z,4.40
2018-05-26T15:53:10.889Z,4.93
2018-05-26T15:55:39.108Z,7.13
2018-05-26T15:58:07.349Z,6.67
2018-05-26T16:00:35.572Z,4.47
2018-05-26T16:03:03.812Z,4.30
2018-05-26T16:05:32.043Z,4.47
2018-05-26T16:08:00.305Z,6.43
2018-05-26T16:10:28.545Z,6.53
2018-05-26T16:12:57.540Z,9.17
2018-05-26T16:15:25.773Z,6.87
2018-05-26T16:17:54.028Z,5.50
2018-05-26T16:20:22.268Z,10.13
2018-05-26T16:22:50.482Z,10.47
2018-05-26T16:25:18.724Z,9.87
2018-05-26T16:27:46.965Z,7.80
2018-05-26T16:30:15.181Z,12.53
2018-05-26T16:32:43.419Z,13.20
2018-05-26T16:35:11.632Z,6.97
2018-05-26T16:37:39.891Z,22.27
2018-05-26T16:40:08.896Z,8.27
2018-05-26T16:42:37.892Z,10.27
2018-05-26T16:45:06.194Z,7.03
2018-05-26T16:47:34.417Z,14.47
2018-05-26T16:50:02.645Z,8.40
2018-05-26T16:52:30.901Z,13.73
2018-05-26T16:54:59.108Z,14.43
2018-05-26T16:57:27.346Z,7.53
2018-05-26T16:59:56.360Z,4.90
2018-05-26T17:02:24.598Z,4.43
2018-05-26T17:04:53.659Z,5.50
2018-05-26T17:07:21.912Z,5.60
2018-05-26T17:09:50.140Z,5.90
2018-05-26T17:12:18.347Z,6.43
2018-05-26T17:14:46.606Z,11.73
2018-05-26T17:17:15.596Z,6.93
2018-05-26T17:19:44.588Z,5.90
2018-05-26T17:22:13.631Z,8.33
2018-05-26T17:24:41.844Z,4.73
2018-05-26T17:27:10.130Z,5.37
2018-05-26T17:29:39.134Z,4.93
2018-05-26T17:32:08.151Z,8.00
2018-05-26T17:34:36.410Z,4.77
2018-05-26T17:37:05.437Z,7.40
2018-05-26T17:39:33.693Z,13.90
2018-05-26T17:42:01.976Z,10.53
2018-05-26T17:44:30.248Z,7.97
2018-05-26T17:46:58.463Z,5.80
2018-05-26T17:49:26.705Z,7.27
2018-05-26T17:51:55.702Z,11.60
2018-05-26T17:54:23.915Z,10.13
2018-05-26T17:56:52.160Z,5.67
2018-05-26T17:59:23.895Z,12.40
2018-05-26T18:01:52.204Z,12.13
2018-05-26T18:04:20.420Z,7.77
2018-05-26T18:06:49.419Z,5.33
2018-05-26T18:09:18.449Z,7.40
2018-05-26T18:14:22.145Z,7.50
2018-05-26T18:16:51.152Z,10.87
2018-05-26T18:19:19.396Z,11.03
2018-05-26T18:21:47.620Z,7.57
2018-05-26T18:24:15.844Z,13.20
2018-05-26T18:26:44.083Z,10.43
2018-05-26T18:29:12.319Z,11.13
2018-05-26T18:31:41.305Z,8.90
2018-05-26T18:34:10.309Z,11.53
2018-05-26T18:36:38.528Z,5.40
2018-05-26T18:39:06.866Z,6.50
2018-05-26T18:41:35.065Z,6.53
2018-05-26T18:44:03.350Z,6.53
2018-05-26T18:46:31.573Z,11.03
2018-05-26T18:49:00.439Z,6.70
2018-05-26T18:51:28.697Z,9.87
2018-05-26T18:53:56.933Z,8.47
2018-05-26T18:56:25.926Z,5.40
2018-05-26T18:58:54.961Z,6.13
2018-05-26T19:01:23.214Z,5.93
2018-05-26T19:03:52.236Z,6.67
2018-05-26T19:06:20.478Z,6.00
2018-05-26T19:08:48.720Z,8.17
2018-05-26T19:11:16.929Z,6.73
2018-05-26T19:13:45.179Z,6.27
2018-05-26T19:16:14.155Z,8.73
2018-05-26T19:18:42.537Z,8.73
2018-05-26T19:21:10.806Z,8.97
2018-05-26T19:23:39.056Z,13.00
2018-05-26T19:26:07.288Z,7.90
2018-05-26T19:28:36.299Z,12.13
2018-05-26T19:31:04.545Z,9.37
2018-05-26T19:33:32.759Z,8.03
2018-05-26T19:36:01.029Z,6.30
2018-05-26T19:38:30.017Z,6.87
2018-05-26T19:40:58.293Z,7.13
2018-05-26T19:43:26.508Z,7.37
2018-05-26T19:45:54.733Z,8.63
2018-05-26T19:48:22.974Z,6.40
2018-05-26T19:50:51.240Z,9.37
2018-05-26T19:53:19.488Z,7.10
2018-05-26T19:55:47.690Z,6.50
2018-05-26T19:58:15.917Z,11.63
2018-05-26T20:00:44.180Z,7.13
2018-05-26T20:03:13.233Z,7.57
2018-05-26T20:05:41.481Z,13.47
2018-05-26T20:08:09.736Z,11.07
2018-05-26T20:10:38.755Z,7.67
2018-05-26T20:13:06.997Z,8.70
2018-05-26T20:15:36.065Z,8.57
2018-05-26T20:18:04.323Z,7.77
2018-05-26T20:20:32.575Z,11.03
2018-05-26T20:23:00.813Z,7.77
2018-05-26T20:25:29.076Z,8.20
2018-05-26T20:27:57.315Z,12.93
2018-05-26T20:30:25.556Z,8.87
2018-05-26T20:32:54.545Z,8.20
2018-05-26T20:35:23.555Z,8.43
2018-05-26T20:37:51.798Z,9.43
2018-05-26T20:40:20.036Z,10.03
2018-05-26T20:42:48.307Z,12.67
2018-05-26T20:45:16.519Z,10.43
2018-05-26T20:47:44.741Z,9.03
2018-05-26T20:50:13.039Z,10.90
2018-05-26T20:52:41.300Z,10.53
2018-05-26T20:55:09.560Z,11.30
2018-05-26T20:57:37.797Z,10.10
2018-05-26T21:00:06.048Z,12.27
2018-05-26T21:02:34.289Z,13.53
2018-05-26T21:05:02.529Z,15.27
2018-05-26T21:07:30.793Z,13.73
2018-05-26T21:09:59.072Z,14.37
2018-05-26T21:12:27.309Z,17.60
2018-05-26T21:14:55.552Z,18.47
2018-05-26T21:17:24.576Z,22.07
2018-05-26T21:19:52.807Z,14.70
2018-05-26T21:22:21.078Z,17.73
2018-05-26T21:24:49.301Z,15.07
2018-05-26T21:27:17.560Z,17.03
2018-05-26T21:29:45.813Z,14.27
2018-05-26T21:32:14.043Z,15.63
2018-05-26T21:34:42.304Z,15.67
2018-05-26T21:37:10.546Z,19.57
2018-05-26T21:39:38.812Z,18.27
2018-05-26T21:42:07.061Z,16.70
2018-05-26T21:44:35.322Z,21.97
2018-05-26T21:47:03.555Z,20.13
2018-05-26T21:49:31.803Z,17.83
2018-05-26T21:52:00.125Z,15.70
2018-05-26T21:54:29.124Z,18.00
2018-05-26T21:56:58.133Z,15.60
2018-05-26T21:59:26.405Z,15.77
2018-05-26T22:01:54.703Z,18.53
2018-05-26T22:04:22.955Z,15.80
2018-05-26T22:06:51.192Z,17.93
2018-05-26T22:09:19.482Z,18.07
2018-05-26T22:11:47.726Z,16.60
2018-05-26T22:14:16.787Z,14.43
2018-05-26T22:16:44.980Z,15.93
2018-05-26T22:19:13.234Z,14.83
2018-05-26T22:21:41.510Z,15.37
2018-05-26T22:24:10.491Z,14.67
2018-05-26T22:26:39.539Z,16.87
2018-05-26T22:29:07.781Z,15.77
2018-05-26T22:31:36.769Z,14.40
2018-05-26T22:34:05.029Z,14.70
2018-05-26T22:36:34.172Z,14.17
2018-05-26T22:39:02.428Z,14.97
2018-05-26T22:41:30.677Z,14.53
2018-05-26T22:43:59.714Z,13.60
2018-05-26T22:46:27.935Z,14.97
2018-05-26T22:48:56.940Z,14.67
2018-05-26T22:51:26.240Z,14.07
2018-05-26T22:53:54.505Z,17.50
2018-05-26T22:56:22.747Z,13.03
2018-05-26T22:58:50.993Z,14.50
2018-05-26T23:01:19.260Z,14.73
2018-05-26T23:03:47.526Z,15.87
2018-05-26T23:06:16.519Z,15.07
2018-05-26T23:08:45.577Z,14.30
2018-05-26T23:13:48.359Z,14.10
2018-05-26T23:16:16.608Z,14.13
2018-05-26T23:18:44.875Z,13.63
2018-05-26T23:21:13.124Z,14.43
2018-05-26T23:23:41.364Z,15.87
2018-05-26T23:26:09.626Z,18.37
2018-05-26T23:28:37.851Z,14.73
2018-05-26T23:31:06.107Z,15.13
2018-05-26T23:33:34.343Z,14.63
2018-05-26T23:36:02.592Z,14.30
2018-05-26T23:38:31.624Z,13.97
2018-05-26T23:40:59.868Z,13.10
2018-05-26T23:43:28.887Z,15.50
2018-05-26T23:45:57.124Z,14.90
2018-05-26T23:48:25.415Z,12.73
2018-05-26T23:50:53.695Z,12.90
2018-05-26T23:53:22.750Z,14.03
2018-05-26T23:55:50.985Z,17.13
2018-05-26T23:58:19.240Z,14.73
